Time;durP1;ratioP1;P1;durP2;ratioP2;P2;SDS_P1;SDS_P2;PMS_P1;PMS_P2;Temp;Humidity;BMP_temperature;BMP_pressure;BME280_temperature;BME280_humidity;BME280_pressure;Samples;Min_cycle;Max_cycle;Signal;HPM_P1;HPM_P2
2022/05/01 00:00:45;;;;;;;29.95;17.25;;;;;;;9.77;71.87;102446.59;5049776;28;20127;-83
2022/05/01 00:03:30;;;;;;;33.80;17.65;;;;;;;9.76;72.01;102442.19;5063214;28;20211;-83
2022/05/01 00:05:58;;;;;;;36.17;16.85;;;;;;;9.73;71.93;102442.03;5062015;28;20040;-83
2022/05/01 00:08:24;;;;;;;35.63;17.70;;;;;;;9.73;71.95;102447.22;5063269;28;20024;-83
2022/05/01 00:10:49;;;;;;;31.30;17.33;;;;;;;9.71;72.00;102447.16;5062065;28;20021;-83
2022/05/01 00:13:15;;;;;;;34.67;17.75;;;;;;;9.73;72.29;102448.16;5062770;28;20070;-83
2022/05/01 00:15:40;;;;;;;35.58;17.95;;;;;;;9.71;72.91;102446.25;5063123;28;20072;-83
2022/05/01 00:18:06;;;;;;;35.17;17.20;;;;;;;9.69;72.58;102437.47;5062838;28;20049;-82
2022/05/01 00:20:31;;;;;;;34.63;18.23;;;;;;;9.67;72.95;102441.72;5062909;28;20029;-82
2022/05/01 00:22:58;;;;;;;35.08;17.35;;;;;;;9.69;72.87;102442.66;5076529;28;20190;-82
2022/05/01 00:25:24;;;;;;;32.00;16.42;;;;;;;9.69;72.38;102435.78;5055195;28;20275;-82
2022/05/01 00:27:49;;;;;;;33.13;17.10;;;;;;;9.71;73.00;102441.06;5062962;28;20028;-82
2022/05/01 00:30:14;;;;;;;33.00;17.25;;;;;;;9.67;73.46;102442.59;5078290;28;20064;-82
2022/05/01 00:38:07;;;;;;;34.80;16.83;;;;;;;9.62;73.26;102437.97;5062571;28;20055;-82
2022/05/01 00:40:33;;;;;;;36.22;18.65;;;;;;;9.61;73.04;102437.06;5062564;28;20096;-82
2022/05/01 00:43:03;;;;;;;33.65;17.65;;;;;;;9.63;73.27;102437.16;5061312;28;20017;-82
2022/05/01 00:45:29;;;;;;;35.78;17.63;;;;;;;9.60;73.18;102430.06;5076983;28;20025;-82
2022/05/01 00:47:54;;;;;;;38.15;17.38;;;;;;;9.60;72.98;102435.25;5062528;28;20088;-82
2022/05/01 00:50:20;;;;;;;35.28;17.95;;;;;;;9.62;72.95;102435.38;5061883;28;20021;-82
2022/05/01 00:52:46;;;;;;;33.95;17.23;;;;;;;9.61;72.77;102436.19;5077672;28;20017;-82
2022/05/01 00:55:12;;;;;;;33.47;17.77;;;;;;;9.58;72.94;102429.97;5071034;28;20112;-82
2022/05/01 00:57:37;;;;;;;38.38;18.75;;;;;;;9.58;72.94;102431.69;5062595;28;20041;-82
2022/05/01 01:00:04;;;;;;;37.00;17.80;;;;;;;9.57;73.00;102423.00;5062146;28;20086;-82
2022/05/01 01:02:31;;;;;;;37.10;18.02;;;;;;;9.57;73.00;102422.09;5062319;28;20029;-82
2022/05/01 01:04:56;;;;;;;33.83;17.30;;;;;;;9.55;72.93;102424.63;5077773;28;20040;-82
2022/05/01 01:07:22;;;;;;;34.58;17.58;;;;;;;9.52;73.23;102419.25;5050813;28;20224;-82
2022/05/01 01:09:47;;;;;;;39.38;18.95;;;;;;;9.52;73.40;102420.97;5046593;28;20326;-81
2022/05/01 01:15:09;;;;;;;37.28;18.33;;;;;;;9.52;73.21;102421.84;5062206;28;20089;-82
2022/05/01 01:17:41;;;;;;;38.63;18.55;;;;;;;9.50;73.64;102420.91;5061981;28;20055;-82
2022/05/01 01:20:17;;;;;;;36.30;18.75;;;;;;;9.52;73.48;102423.56;5061596;28;20045;-82
2022/05/01 01:22:44;;;;;;;36.70;18.67;;;;;;;9.53;73.04;102420.13;5062137;28;20025;-82
2022/05/01 01:25:10;;;;;;;38.03;18.08;;;;;;;9.54;73.11;102421.94;5062188;28;20027;-82
2022/05/01 01:27:40;;;;;;;37.72;18.65;;;;;;;9.52;73.49;102414.06;5061544;28;20032;-83
2022/05/01 01:32:51;;;;;;;37.50;18.45;;;;;;;9.48;73.53;102416.41;5057529;28;20228;-83
2022/05/01 01:35:23;;;;;;;40.88;18.60;;;;;;;9.46;73.41;102418.94;5061937;28;20045;-83
2022/05/01 01:37:50;;;;;;;37.60;17.85;;;;;;;9.40;73.75;102422.09;5060795;28;20036;-83
2022/05/01 01:40:29;;;;;;;42.05;18.20;;;;;;;9.40;73.68;102423.81;5060563;28;20267;-83
2022/05/01 01:42:55;;;;;;;;;;;;;;;9.50;72.07;102420.91;5059445;28;20029;-83
2022/05/01 01:45:22;;;;;;;41.58;18.92;;;;;;;9.38;73.64;102418.53;5077545;28;20310;-83
2022/05/01 01:47:50;;;;;;;42.75;19.88;;;;;;;9.34;74.38;102418.25;5061793;28;20096;-83
2022/05/01 01:50:19;;;;;;;41.63;19.05;;;;;;;9.35;74.11;102414.84;5062172;28;20025;-83
2022/05/01 01:52:48;;;;;;;39.63;19.08;;;;;;;9.34;74.51;102418.25;5061929;28;20048;-83
2022/05/01 01:55:15;;;;;;;44.08;19.48;;;;;;;9.31;74.18;102419.00;5052404;28;20322;-83
2022/05/01 01:57:41;;;;;;;44.17;19.33;;;;;;;9.30;74.24;102418.91;5073028;28;20021;-83
2022/05/01 02:00:07;;;;;;;42.15;19.00;;;;;;;9.23;74.22;102413.38;5061677;28;20280;-83
2022/05/01 02:02:32;;;;;;;42.88;19.40;;;;;;;9.20;74.48;102410.63;5062840;28;20032;-83
2022/05/01 02:04:57;;;;;;;41.53;19.77;;;;;;;9.20;74.68;102414.94;5058956;28;20268;-83
2022/05/01 02:07:23;;;;;;;42.17;19.88;;;;;;;9.18;74.72;102412.25;5058614;28;20035;-83
2022/05/01 02:09:48;;;;;;;42.63;20.23;;;;;;;9.18;74.61;102409.66;5065234;28;20097;-83
2022/05/01 02:12:13;;;;;;;41.75;19.65;;;;;;;9.18;74.83;102406.13;5061964;28;20044;-83
2022/05/01 02:14:38;;;;;;;43.55;19.17;;;;;;;9.20;74.62;102407.13;5065305;28;20309;-83
2022/05/01 02:17:04;;;;;;;41.83;20.17;;;;;;;9.17;74.65;102404.38;5065164;28;20037;-83
2022/05/01 02:19:29;;;;;;;46.33;19.85;;;;;;;9.18;74.22;102403.53;5064224;28;20040;-83
2022/05/01 02:21:55;;;;;;;44.55;20.20;;;;;;;9.18;74.16;102407.03;5080698;28;20248;-83
2022/05/01 02:24:21;;;;;;;44.78;20.15;;;;;;;9.17;73.93;102410.44;5065453;28;20055;-83
2022/05/01 02:26:47;;;;;;;47.50;20.50;;;;;;;9.16;74.02;102407.78;5065049;28;20033;-83
2022/05/01 02:29:13;;;;;;;45.40;19.83;;;;;;;9.14;73.83;102407.69;5064248;28;20029;-83
2022/05/01 02:31:40;;;;;;;42.20;19.58;;;;;;;9.13;74.03;102403.28;5065000;28;20286;-83
2022/05/01 02:34:06;;;;;;;48.20;20.92;;;;;;;9.13;73.99;102398.09;5063593;28;20066;-83
2022/05/01 02:36:31;;;;;;;41.95;19.98;;;;;;;9.12;73.83;102391.09;5060436;28;20057;-83
2022/05/01 02:38:57;;;;;;;44.10;20.50;;;;;;;9.14;74.07;102394.69;5058283;28;20279;-83
2022/05/01 02:41:22;;;;;;;44.38;20.98;;;;;;;9.12;74.44;102391.09;5080340;28;20021;-84
2022/05/01 02:43:48;;;;;;;42.95;20.05;;;;;;;9.10;74.61;102384.91;5064799;28;20064;-83
2022/05/01 02:46:15;;;;;;;45.35;20.02;;;;;;;9.11;74.66;102386.72;5063433;28;20017;-83
2022/05/01 02:48:41;;;;;;;49.97;21.40;;;;;;;9.10;74.94;102384.91;5063648;28;20032;-83
2022/05/01 02:51:06;;;;;;;42.13;20.27;;;;;;;9.08;74.84;102386.56;5052752;28;20021;-83
2022/05/01 02:53:32;;;;;;;48.40;22.00;;;;;;;9.07;74.93;102389.97;5063561;28;20207;-83
2022/05/01 02:56:00;;;;;;;48.63;22.42;;;;;;;9.08;74.78;102383.97;5063362;28;20029;-83
2022/05/01 02:58:27;;;;;;;49.50;21.38;;;;;;;9.04;74.77;102382.00;5064645;28;20102;-83
2022/05/01 03:00:52;;;;;;;45.30;21.15;;;;;;;9.03;74.75;102380.19;5064319;28;20049;-83
2022/05/01 03:03:18;;;;;;;49.95;22.02;;;;;;;9.02;75.15;102381.00;5080004;28;20025;-83
2022/05/01 03:05:43;;;;;;;46.20;21.73;;;;;;;9.00;75.03;102374.84;5063342;28;20286;-83
2022/05/01 03:08:12;;;;;;;47.72;21.85;;;;;;;8.97;75.06;102385.06;5064268;28;20275;-82
2022/05/01 03:10:37;;;;;;;49.50;21.98;;;;;;;8.96;75.20;102372.88;5079844;28;20036;-82
2022/05/01 03:13:03;;;;;;;46.85;21.30;;;;;;;8.98;75.01;102379.03;5064197;28;20045;-82
2022/05/01 03:15:28;;;;;;;45.85;21.77;;;;;;;8.97;75.34;102383.34;5063377;28;20377;-82
2022/05/01 03:23:21;;;;;;;47.22;21.83;;;;;;;8.88;75.40;102370.75;5056727;28;20090;-82
2022/05/01 03:25:47;;;;;;;49.55;21.55;;;;;;;8.86;75.51;102367.19;5063832;28;20275;-82
2022/05/01 03:28:12;;;;;;;49.55;22.77;;;;;;;8.85;75.57;102367.97;5064040;28;20025;-82
2022/05/01 03:30:37;;;;;;;50.55;22.15;;;;;;;8.82;75.67;102367.81;5062667;28;20291;-82
2022/05/01 03:33:05;;;;;;;51.38;22.95;;;;;;;8.83;75.81;102366.97;5062859;28;20025;-82
2022/05/01 03:35:31;;;;;;;47.78;22.05;;;;;;;8.83;75.70;102363.50;5059817;28;20024;-82
2022/05/01 03:37:56;;;;;;;52.15;23.33;;;;;;;8.81;75.73;102358.22;5054088;28;20088;-82
2022/05/01 03:40:22;;;;;;;51.35;22.38;;;;;;;8.81;75.86;102359.94;5078882;28;20159;-82
2022/05/01 03:42:47;;;;;;;50.38;23.48;;;;;;;8.80;75.47;102361.63;5064151;28;20302;-82
2022/05/01 03:45:13;;;;;;;54.55;24.00;;;;;;;8.78;75.32;102358.06;5062449;28;20032;-82
2022/05/01 03:47:38;;;;;;;50.53;22.40;;;;;;;8.76;75.58;102358.78;5062227;28;20031;-82
2022/05/01 03:50:05;;;;;;;47.72;22.35;;;;;;;8.75;75.77;102360.50;5061802;28;20264;-82
2022/05/01 03:52:30;;;;;;;50.25;22.80;;;;;;;8.73;75.69;102364.69;5056230;28;20037;-82
2022/05/01 03:54:56;;;;;;;49.05;23.35;;;;;;;8.69;75.59;102360.16;5063409;28;20028;-82
2022/05/01 03:57:21;;;;;;;52.40;23.23;;;;;;;8.65;75.58;102366.00;5078882;28;20064;-82
2022/05/01 03:59:47;;;;;;;53.80;22.65;;;;;;;8.61;75.84;102364.03;5063255;28;20028;-82
2022/05/01 04:02:15;;;;;;;52.80;23.00;;;;;;;8.54;75.53;102362.75;5061740;28;20032;-82
2022/05/01 04:04:41;;;;;;;49.10;22.35;;;;;;;8.51;75.58;102363.47;5062075;28;20071;-82
2022/05/01 04:07:06;;;;;;;50.38;23.45;;;;;;;8.49;75.77;102361.63;5078575;28;20252;-82
2022/05/01 04:09:32;;;;;;;53.38;24.10;;;;;;;8.45;75.84;102363.16;5078569;28;20132;-82
2022/05/01 04:11:57;;;;;;;54.53;23.17;;;;;;;8.45;76.04;102370.06;5063129;28;20024;-82
2022/05/01 04:14:22;;;;;;;51.90;23.58;;;;;;;8.43;76.31;102363.81;5062902;28;20179;-82
2022/05/01 04:16:47;;;;;;;51.53;22.70;;;;;;;8.42;76.24;102362.94;5062780;28;20033;-82
2022/05/01 04:19:13;;;;;;;49.38;22.65;;;;;;;8.40;76.10;102366.25;5059978;28;20179;-82
2022/05/01 04:21:39;;;;;;;52.85;22.77;;;;;;;8.38;75.98;102360.97;5055217;28;20100;-82
2022/05/01 04:24:05;;;;;;;50.35;23.17;;;;;;;8.33;75.82;102367.63;5063027;28;20021;-82
2022/05/01 04:26:30;;;;;;;52.83;23.88;;;;;;;8.31;76.06;102366.63;5062535;28;20039;-82
2022/05/01 04:31:39;;;;;;;53.92;23.73;;;;;;;8.30;75.84;102359.66;5062720;28;20035;-82
2022/05/01 04:34:05;;;;;;;56.35;24.75;;;;;;;8.28;76.14;102363.84;5078323;28;20021;-82
2022/05/01 04:36:31;;;;;;;56.70;25.17;;;;;;;8.22;76.40;102359.19;5055824;28;20025;-82
2022/05/01 04:38:56;;;;;;;56.50;24.40;;;;;;;8.20;76.65;102363.41;5061547;28;20025;-82
2022/05/01 04:41:21;;;;;;;59.75;25.30;;;;;;;8.17;76.54;102358.94;5062426;28;20045;-82
2022/05/01 04:43:47;;;;;;;61.90;25.63;;;;;;;8.12;76.68;102365.56;5062513;28;20041;-82
2022/05/01 04:46:12;;;;;;;60.40;25.15;;;;;;;8.10;77.35;102363.69;5062602;28;20024;-82
2022/05/01 04:48:38;;;;;;;65.90;25.95;;;;;;;8.10;77.49;102361.97;5062432;28;20040;-82
2022/05/01 04:51:05;;;;;;;63.53;26.30;;;;;;;8.08;77.48;102363.59;5056568;28;20036;-82
2022/05/01 04:53:30;;;;;;;64.35;26.98;;;;;;;8.07;77.47;102367.00;5052815;28;20331;-82
2022/05/01 04:57:04;;;;;;;62.33;26.13;;;;;;;8.09;77.20;102375.75;5062285;28;20048;-82
2022/05/01 04:58:41;;;;;;;63.45;26.13;;;;;;;8.07;77.42;102373.91;5062384;28;20036;-82
2022/05/01 05:01:06;;;;;;;61.50;26.80;;;;;;;8.06;77.95;102375.59;5060929;28;20020;-82
2022/05/01 05:03:31;;;;;;;62.92;26.38;;;;;;;8.07;77.81;102373.91;5061315;28;20021;-82
2022/05/01 05:05:57;;;;;;;65.30;27.60;;;;;;;8.08;78.05;102373.06;5060213;28;20040;-82
2022/05/01 05:11:06;;;;;;;67.38;27.92;;;;;;;8.09;78.17;102373.16;5062155;28;20062;-82
2022/05/01 05:13:33;;;;;;;68.80;28.70;;;;;;;8.10;78.23;102374.97;5062423;28;20175;-82
2022/05/01 05:15:59;;;;;;;66.15;26.90;;;;;;;8.13;78.43;102385.53;5062282;28;20035;-82
2022/05/01 05:18:25;;;;;;;62.53;27.02;;;;;;;8.14;78.29;102376.03;5062222;28;20036;-82
2022/05/01 05:20:50;;;;;;;67.38;28.60;;;;;;;8.14;78.35;102376.94;5059850;28;20290;-82
2022/05/01 05:23:17;;;;;;;66.63;27.83;;;;;;;8.17;78.43;102379.72;5065201;28;20029;-82
2022/05/01 05:25:42;;;;;;;65.10;27.85;;;;;;;8.19;78.38;102379.78;5076166;28;20230;-82
2022/05/01 05:28:08;;;;;;;65.43;28.00;;;;;;;8.22;78.89;102382.56;5077699;28;20021;-82
2022/05/01 05:30:33;;;;;;;64.97;28.73;;;;;;;8.20;78.82;102386.78;5062251;28;20047;-82
2022/05/01 05:32:59;;;;;;;76.65;30.17;;;;;;;8.21;78.43;102385.06;5062125;28;20032;-82
2022/05/01 05:35:24;;;;;;;74.07;29.60;;;;;;;8.25;78.53;102387.94;5062115;28;20131;-82
2022/05/01 05:37:49;;;;;;;79.95;31.15;;;;;;;8.29;78.48;102394.22;5061913;28;20176;-82
2022/05/01 05:40:15;;;;;;;74.22;29.10;;;;;;;8.32;79.09;102397.00;5055134;28;20036;-82
2022/05/01 05:42:40;;;;;;;73.80;30.33;;;;;;;8.35;78.79;102398.03;5065915;28;20080;-82
2022/05/01 05:45:06;;;;;;;72.15;28.77;;;;;;;8.40;78.46;102395.75;5066116;28;20093;-82
2022/05/01 05:47:31;;;;;;;68.18;28.85;;;;;;;8.42;78.59;102394.09;5065839;28;20032;-82
2022/05/01 05:49:56;;;;;;;76.22;30.02;;;;;;;8.44;78.33;102394.19;5065889;28;20106;-82
2022/05/01 05:52:22;;;;;;;78.88;30.80;;;;;;;8.49;78.29;102398.88;5065843;28;20037;-82
2022/05/01 05:54:47;;;;;;;76.75;29.73;;;;;;;8.55;78.40;102402.66;5063792;28;20025;-82
2022/05/01 05:57:12;;;;;;;76.53;31.23;;;;;;;8.58;78.45;102397.63;5058117;28;20025;-82
2022/05/01 05:59:37;;;;;;;80.10;31.95;;;;;;;8.62;78.41;102402.19;5065452;28;20279;-82
2022/05/01 06:02:03;;;;;;;81.22;31.77;;;;;;;8.66;78.41;102405.03;5064323;28;20036;-82
2022/05/01 06:04:29;;;;;;;87.15;32.22;;;;;;;8.70;78.17;102396.63;5065479;28;20017;-82
2022/05/01 06:06:54;;;;;;;81.65;33.13;;;;;;;8.73;77.45;102403.66;5054377;28;20183;-82
2022/05/01 06:09:19;;;;;;;89.00;33.75;;;;;;;8.77;77.74;102405.63;5062171;28;20029;-82
2022/05/01 06:11:45;;;;;;;85.05;33.38;;;;;;;8.80;78.29;102405.81;5065234;28;20032;-82
2022/05/01 06:14:10;;;;;;;87.53;33.42;;;;;;;8.80;77.24;102407.53;5065245;28;20041;-82
2022/05/01 06:16:36;;;;;;;83.28;32.72;;;;;;;8.85;77.52;102412.16;5065354;28;20055;-81
2022/05/01 06:19:01;;;;;;;91.25;34.38;;;;;;;8.87;77.53;102405.34;5065013;28;20033;-82
2022/05/01 06:21:27;;;;;;;88.03;32.88;;;;;;;8.91;77.97;102413.31;5061578;28;20029;-82
2022/05/01 06:23:52;;;;;;;82.70;32.88;;;;;;;8.96;77.91;102419.66;5065118;28;20157;-82
2022/05/01 06:26:17;;;;;;;84.53;32.65;;;;;;;8.98;77.42;102418.94;5063939;28;20029;-82
2022/05/01 06:28:43;;;;;;;86.10;32.45;;;;;;;9.02;78.15;102413.13;5080356;28;20265;-82
2022/05/01 06:31:08;;;;;;;86.32;33.30;;;;;;;9.07;77.70;102417.66;5064968;28;20053;-82
2022/05/01 06:33:35;;;;;;;84.63;33.33;;;;;;;9.10;78.05;102415.25;5063838;28;20017;-82
2022/05/01 06:36:01;;;;;;;86.00;33.30;;;;;;;9.12;77.60;102406.69;5060115;28;20021;-81
2022/05/01 06:38:28;;;;;;;88.63;34.28;;;;;;;9.20;77.52;102418.41;5080469;28;20083;-82
2022/05/01 06:40:53;;;;;;;95.82;33.83;;;;;;;9.25;78.19;102416.06;5062516;28;20037;-82
2022/05/01 06:43:19;;;;;;;88.22;33.50;;;;;;;9.31;77.16;102421.63;5055087;28;20025;-82
2022/05/01 06:45:45;;;;;;;87.50;32.42;;;;;;;9.37;77.13;102408.94;5064762;28;20131;-82
2022/05/01 06:48:11;;;;;;;89.15;34.53;;;;;;;9.40;76.63;102421.22;5080189;28;20052;-82
2022/05/01 06:50:37;;;;;;;85.60;33.85;;;;;;;9.46;77.07;102418.03;5052100;28;20267;-82
2022/05/01 06:53:04;;;;;;;92.50;33.92;;;;;;;9.52;77.00;102420.97;5064998;28;20040;-82
2022/05/01 06:55:30;;;;;;;80.82;32.80;;;;;;;9.56;76.71;102418.59;5064458;28;20037;-82
2022/05/01 06:57:55;;;;;;;88.55;33.95;;;;;;;9.62;76.48;102419.75;5064446;28;20029;-82
2022/05/01 07:00:22;;;;;;;85.90;34.17;;;;;;;9.67;75.57;102411.34;5064303;28;20294;-81
2022/05/01 07:02:48;;;;;;;85.43;34.55;;;;;;;9.70;76.30;102413.22;5064314;28;20017;-81
2022/05/01 07:05:14;;;;;;;87.72;32.55;;;;;;;9.73;75.80;102408.19;5058832;28;20088;-82
2022/05/01 07:07:40;;;;;;;77.72;31.27;;;;;;;9.78;75.65;102411.06;5063058;28;20029;-83
2022/05/01 07:10:07;;;;;;;85.93;33.67;;;;;;;9.81;76.03;102412.09;5063315;28;20077;-83
2022/05/01 07:12:33;;;;;;;78.13;30.65;;;;;;;9.87;74.72;102403.72;5063068;28;20032;-83
2022/05/01 07:14:58;;;;;;;81.25;32.95;;;;;;;9.90;75.43;102406.47;5061935;28;20025;-83
2022/05/01 07:17:23;;;;;;;82.80;31.30;;;;;;;9.95;75.22;102409.28;5062884;28;20076;-83
2022/05/01 07:19:49;;;;;;;71.20;30.27;;;;;;;10.00;74.07;102405.22;5061368;28;20084;-83
2022/05/01 07:22:16;;;;;;;72.50;29.50;;;;;;;10.05;74.91;102412.47;5061755;28;20032;-83
2022/05/01 07:24:42;;;;;;;67.20;29.38;;;;;;;10.15;75.23;102410.31;5065712;28;20727;-83
2022/05/01 07:27:07;;;;;;;65.75;29.13;;;;;;;10.24;75.33;102409.06;5056947;28;20044;-83
2022/05/01 07:29:32;;;;;;;64.10;28.48;;;;;;;10.35;74.51;102414.84;5060952;28;20067;-83
2022/05/01 07:31:57;;;;;;;52.03;24.77;;;;;;;10.41;69.56;102411.66;5057720;28;20049;-83
2022/05/01 07:34:23;;;;;;;54.88;25.85;;;;;;;10.46;72.55;102414.47;5061579;28;20051;-83
2022/05/01 07:36:48;;;;;;;53.50;24.05;;;;;;;10.54;73.85;102413.16;5053754;28;20082;-83
2022/05/01 07:39:13;;;;;;;52.75;24.85;;;;;;;10.61;73.01;102418.72;5058426;28;20033;-83
2022/05/01 07:41:39;;;;;;;50.75;23.85;;;;;;;10.68;72.26;102421.66;5059311;28;20049;-83
2022/05/01 07:44:04;;;;;;;47.03;22.08;;;;;;;10.72;71.82;102423.59;5078051;28;20311;-83
2022/05/01 07:46:29;;;;;;;45.33;23.20;;;;;;;10.71;70.17;102427.91;5071201;28;20025;-83
2022/05/01 07:48:55;;;;;;;43.95;22.38;;;;;;;10.74;71.75;102421.94;5060315;28;20028;-83
2022/05/01 07:51:20;;;;;;;41.67;22.27;;;;;;;10.76;71.14;102420.28;5058463;28;20289;-83
2022/05/01 07:53:45;;;;;;;46.58;22.42;;;;;;;10.78;71.00;102427.38;5057396;28;20071;-83
2022/05/01 07:56:11;;;;;;;36.83;19.95;;;;;;;10.82;70.99;102430.13;5053707;28;20191;-82
2022/05/01 07:58:36;;;;;;;34.53;19.40;;;;;;;10.85;71.26;102425.97;5060593;28;20056;-84
2022/05/01 08:01:03;;;;;;;37.65;20.02;;;;;;;10.89;69.94;102427.91;5052624;28;20025;-83
2022/05/01 08:06:14;;;;;;;36.75;19.00;;;;;;;10.99;69.85;102420.50;5050378;28;20096;-82
2022/05/01 08:08:40;;;;;;;35.17;19.60;;;;;;;11.05;68.31;102423.41;5058078;28;20045;-77
2022/05/01 08:11:06;;;;;;;32.30;17.23;;;;;;;11.15;69.53;102420.41;5052134;28;20025;-77
2022/05/01 08:13:32;;;;;;;33.50;19.65;;;;;;;11.25;70.28;102420.03;5060414;28;20101;-77
2022/05/01 08:15:57;;;;;;;29.75;16.83;;;;;;;11.36;69.63;102409.19;5053681;28;20021;-77
2022/05/01 08:21:09;;;;;;;27.52;15.43;;;;;;;11.48;67.60;102404.50;5057360;28;20087;-77
2022/05/01 08:23:36;;;;;;;27.23;16.17;;;;;;;11.57;69.54;102412.78;5062498;28;20179;-77
2022/05/01 08:26:06;;;;;;;26.17;14.90;;;;;;;11.59;65.60;102405.88;5061805;28;20082;-77
2022/05/01 08:28:33;;;;;;;24.88;15.40;;;;;;;11.64;67.74;102404.38;5062977;28;20044;-77
2022/05/01 08:30:59;;;;;;;27.27;16.20;;;;;;;11.72;68.13;102406.44;5062668;28;20108;-77
2022/05/01 08:33:25;;;;;;;22.42;13.30;;;;;;;11.81;67.71;102399.00;5061516;28;20045;-77
2022/05/01 08:35:50;;;;;;;21.15;12.95;;;;;;;11.85;65.11;102395.69;5061490;28;20132;-77
2022/05/01 08:38:16;;;;;;;22.30;13.77;;;;;;;11.96;66.97;102399.72;5060045;28;20190;-77
2022/05/01 08:40:45;;;;;;;23.20;13.55;;;;;;;12.04;66.04;102396.53;5062692;28;20037;-77
2022/05/01 08:43:14;;;;;;;20.10;12.43;;;;;;;12.15;67.03;102400.47;5062513;28;20052;-77
2022/05/01 08:46:00;;;;;;;20.87;12.73;;;;;;;12.23;65.27;102396.47;5061482;28;20033;-77
2022/05/01 08:48:36;;;;;;;19.50;12.30;;;;;;;12.26;62.24;102399.19;5062796;28;20100;-77
2022/05/01 08:51:03;;;;;;;19.17;12.27;;;;;;;12.38;65.50;102393.59;5062614;28;20032;-76
2022/05/01 08:53:29;;;;;;;16.25;11.23;;;;;;;12.48;62.75;102387.00;5062680;28;20045;-76
2022/05/01 08:55:56;;;;;;;14.55;10.07;;;;;;;12.55;61.53;102393.41;5051092;28;20025;-76
2022/05/01 08:58:22;;;;;;;11.45;7.35;;;;;;;12.59;56.63;102390.09;5061723;28;20028;-76
2022/05/01 09:00:49;;;;;;;12.68;8.15;;;;;;;12.66;58.53;102386.88;5059850;28;20190;-76
2022/05/01 09:03:16;;;;;;;12.07;8.00;;;;;;;12.72;57.93;102394.97;5061355;28;20028;-76
2022/05/01 09:05:41;;;;;;;13.55;8.52;;;;;;;12.78;58.61;102389.09;5062457;28;20028;-77
2022/05/01 09:08:07;;;;;;;12.25;7.90;;;;;;;12.79;55.37;102386.53;5055201;28;20025;-76
2022/05/01 09:10:33;;;;;;;13.82;8.68;;;;;;;12.83;56.34;102387.53;5077776;28;20036;-76
2022/05/01 09:12:58;;;;;;;13.32;8.60;;;;;;;12.91;57.16;102387.84;5063992;28;20213;-76
2022/05/01 09:15:35;;;;;;;13.00;8.15;;;;;;;12.97;57.71;102388.06;5066389;28;20033;-77
2022/05/01 09:18:05;;;;;;;11.25;8.10;;;;;;;13.00;53.54;102385.56;5066487;28;20060;-77
2022/05/01 09:20:32;;;;;;;10.65;7.60;;;;;;;13.05;54.85;102389.28;5066350;28;20036;-77
2022/05/01 09:22:59;;;;;;;11.88;7.88;;;;;;;13.03;54.70;102383.97;5080762;28;20033;-77
2022/05/01 09:25:27;;;;;;;11.75;7.95;;;;;;;13.02;53.86;102384.81;5058053;28;20047;-77
2022/05/01 09:27:57;;;;;;;10.57;7.47;;;;;;;13.01;52.34;102392.59;5064157;28;20158;-77
2022/05/01 09:30:33;;;;;;;11.05;7.07;;;;;;;12.99;51.48;102392.53;5066359;28;20279;-77
2022/05/01 09:33:00;;;;;;;12.60;7.55;;;;;;;12.92;48.19;102387.91;5050396;28;20047;-77
2022/05/01 09:35:33;;;;;;;13.35;7.82;;;;;;;12.83;50.82;102391.06;5057959;28;20029;-77
2022/05/01 09:38:19;;;;;;;12.15;7.65;;;;;;;12.79;52.62;102390.84;5066118;28;20100;-77
2022/05/01 09:40:49;;;;;;;11.85;7.85;;;;;;;12.73;49.88;102388.91;5065577;28;20025;-77
2022/05/01 09:43:37;;;;;;;12.55;8.30;;;;;;;12.71;51.52;102393.16;5065641;28;20087;-77
2022/05/01 09:46:23;;;;;;;10.95;8.15;;;;;;;12.69;52.11;102387.88;5065730;28;20028;-76
2022/05/01 09:49:03;;;;;;;11.98;7.90;;;;;;;12.70;50.73;102391.38;5065965;28;20035;-77
2022/05/01 09:51:33;;;;;;;11.35;8.07;;;;;;;12.74;50.70;102392.41;5055527;28;20037;-77
2022/05/01 09:54:00;;;;;;;12.77;8.68;;;;;;;12.78;52.22;102389.09;5065829;28;20283;-77
2022/05/01 09:56:26;;;;;;;11.75;8.40;;;;;;;12.85;49.06;102388.50;5061783;28;20018;-77
2022/05/01 09:58:59;;;;;;;14.93;8.77;;;;;;;12.88;49.88;102391.22;5059700;28;20028;-77
2022/05/01 10:01:26;;;;;;;12.68;8.48;;;;;;;12.98;49.70;102385.50;5065672;28;20044;-76
2022/05/01 10:03:52;;;;;;;12.52;8.82;;;;;;;13.04;48.78;102375.28;5065752;28;20046;-76
2022/05/01 10:06:18;;;;;;;12.60;8.30;;;;;;;13.12;50.39;102382.53;5065602;28;20256;-77
2022/05/01 10:08:45;;;;;;;14.90;8.88;;;;;;;13.18;48.66;102380.16;5062646;28;20033;-76
2022/05/01 10:11:14;;;;;;;13.20;8.80;;;;;;;13.26;50.58;102381.31;5067658;28;20037;-76
2022/05/01 10:13:40;;;;;;;;;;;;;;;13.29;53.52;102384.03;5081445;28;20017;-76
2022/05/01 10:16:08;;;;;;;14.25;8.50;;;;;;;13.28;49.78;102384.00;5081000;28;19905;-76
2022/05/01 10:18:34;;;;;;;13.75;8.93;;;;;;;13.27;49.79;102372.63;5065422;28;20036;-76
2022/05/01 10:20:59;;;;;;;14.00;8.80;;;;;;;13.37;52.14;102372.19;5065205;28;20040;-76
2022/05/01 10:23:25;;;;;;;15.35;8.93;;;;;;;13.38;48.69;102376.59;5079453;28;20161;-76
2022/05/01 10:25:55;;;;;;;12.57;8.50;;;;;;;13.50;53.11;102372.63;5063929;28;20084;-76
2022/05/01 10:28:29;;;;;;;13.52;9.13;;;;;;;13.64;50.37;102371.38;5072937;28;20239;-76
2022/05/01 10:34:38;;;;;;;13.93;8.75;;;;;;;13.83;50.56;102365.06;5059627;28;20083;-76
2022/05/01 10:37:19;;;;;;;12.82;9.20;;;;;;;13.78;48.04;102358.78;5079218;28;20028;-76
2022/05/01 10:39:46;;;;;;;12.40;8.38;;;;;;;13.72;48.72;102364.69;5064797;28;20071;-77
2022/05/01 10:42:11;;;;;;;13.57;9.32;;;;;;;13.71;49.81;102360.28;5064817;28;20035;-77
2022/05/01 10:44:37;;;;;;;15.07;9.30;;;;;;;13.66;47.30;102361.84;5064881;28;20088;-77
2022/05/01 10:47:13;;;;;;;14.25;9.25;;;;;;;13.63;48.89;102359.13;5064691;28;20029;-76
2022/05/01 10:49:41;;;;;;;15.57;9.82;;;;;;;13.57;48.11;102354.56;5064800;28;20021;-77
2022/05/01 10:52:18;;;;;;;14.68;9.75;;;;;;;13.54;48.21;102349.22;5055529;28;20091;-77
2022/05/01 10:54:59;;;;;;;16.15;10.13;;;;;;;13.53;47.93;102352.66;5080205;28;20036;-77
2022/05/01 10:57:25;;;;;;;15.38;9.95;;;;;;;13.49;46.81;102350.78;5066603;28;20028;-76
2022/05/01 11:00:05;;;;;;;14.93;9.63;;;;;;;13.47;48.43;102348.94;5064785;28;20045;-77
2022/05/01 11:02:46;;;;;;;14.95;9.50;;;;;;;13.49;48.96;102344.66;5063355;28;20044;-77
2022/05/01 11:05:41;;;;;;;15.20;9.68;;;;;;;13.52;50.79;102339.53;5063434;28;20025;-77
2022/05/01 11:08:19;;;;;;;15.30;9.88;;;;;;;13.54;49.91;102333.50;5057565;28;20040;-76
2022/05/01 11:10:46;;;;;;;14.18;9.98;;;;;;;13.54;46.79;102340.47;5063168;28;20040;-76
2022/05/01 11:13:16;;;;;;;17.38;10.20;;;;;;;13.54;47.22;102336.13;5064225;28;20068;-77
2022/05/01 11:15:47;;;;;;;15.90;9.98;;;;;;;13.56;46.94;102336.19;5062680;28;20017;-77
2022/05/01 11:18:13;;;;;;;16.00;10.00;;;;;;;13.54;46.97;102328.28;5058454;28;20046;-76
2022/05/01 11:20:39;;;;;;;15.93;10.25;;;;;;;13.57;47.80;102336.22;5052826;28;20078;-77
2022/05/01 11:23:30;;;;;;;16.27;10.02;;;;;;;13.60;48.13;102327.59;5063991;28;20028;-77
2022/05/01 11:26:09;;;;;;;15.55;9.88;;;;;;;13.60;46.53;102327.59;5064046;28;20024;-77
2022/05/01 11:28:49;;;;;;;15.50;9.63;;;;;;;13.61;47.85;102313.66;5064169;28;20027;-76
2022/05/01 11:31:37;;;;;;;16.02;10.20;;;;;;;13.65;47.67;102320.78;5056759;28;20056;-77
2022/05/01 11:34:17;;;;;;;16.77;10.10;;;;;;;13.70;49.31;102313.06;5053106;28;20101;-77
2022/05/01 11:37:01;;;;;;;16.05;10.38;;;;;;;13.77;51.09;102309.81;5063150;28;20029;-76
2022/05/01 11:39:45;;;;;;;17.83;10.55;;;;;;;13.83;49.93;102306.53;5062761;28;20034;-77
2022/05/01 11:42:25;;;;;;;17.42;10.55;;;;;;;13.86;48.76;102306.63;5063819;28;20040;-76
2022/05/01 11:44:52;;;;;;;14.65;9.75;;;;;;;13.91;50.56;102302.44;5063510;28;20045;-76
2022/05/01 11:47:19;;;;;;;16.52;9.95;;;;;;;13.96;49.32;102298.25;5061391;28;20321;-76
2022/05/01 11:49:45;;;;;;;17.33;10.85;;;;;;;13.97;47.46;102297.41;5063477;28;20294;-76